createdAt,value
2023-02-28T00:00:37.814Z,284.33149
2023-02-28T00:05:39.487Z,273.41176
2023-02-28T00:10:40.921Z,263.17098
2023-02-28T00:15:42.408Z,258.28571
2023-02-28T00:20:43.885Z,253.54774
2023-02-28T00:25:45.449Z,256.69036
2023-02-28T00:30:47.185Z,263.17098
2023-02-28T00:35:48.680Z,266.51309
2023-02-28T00:40:50.320Z,275.1828
2023-02-28T00:45:51.907Z,275.1828
2023-02-28T00:50:53.482Z,275.1828
2023-02-28T00:55:55.049Z,269.92593
2023-02-28T01:00:56.509Z,263.17098
2023-02-28T01:05:58.048Z,261.52577
2023-02-28T01:10:59.568Z,261.52577
2023-02-28T01:16:01.205Z,256.69036
2023-02-28T01:21:02.718Z,256.69036
2023-02-28T01:26:04.177Z,240.15385
2023-02-28T01:31:06.043Z,229.18519
2023-02-28T01:36:07.682Z,221.47748
2023-02-28T01:41:09.411Z,212.99563
2023-02-28T01:46:10.930Z,208.37768
2023-02-28T01:51:12.539Z,206.12766
2023-02-28T01:56:14.379Z,208.37768
2023-02-28T02:01:15.966Z,210.66667
2023-02-28T02:06:17.574Z,202.82353
2023-02-28T02:11:19.216Z,198.54545
2023-02-28T02:16:20.868Z,197.49794
2023-02-28T02:21:22.474Z,198.54545
2023-02-28T02:26:23.987Z,199.60166
2023-02-28T02:31:25.574Z,200.66667
2023-02-28T02:36:27.260Z,193.39271
2023-02-28T02:41:29.013Z,183.68872
2023-02-28T02:46:30.772Z,180.01533
2023-02-28T02:51:32.408Z,180.92308
2023-02-28T02:56:33.976Z,181.83784
2023-02-28T03:01:35.525Z,183.68872
2023-02-28T03:06:37.029Z,180.01533
2023-02-28T03:11:38.532Z,178.22053
2023-02-28T03:16:40.042Z,179.1145
2023-02-28T03:21:41.654Z,167.18841
2023-02-28T03:26:43.250Z,168
2023-02-28T03:31:44.922Z,169.64103
2023-02-28T03:36:46.514Z,168
2023-02-28T03:41:48.230Z,168.81752
2023-02-28T03:46:49.748Z,169.64103
2023-02-28T03:51:51.306Z,169.64103
2023-02-28T03:56:52.906Z,167.18841
2023-02-28T04:01:54.528Z,170.47059
2023-02-28T04:06:56.100Z,168
2023-02-28T04:11:57.669Z,166.38267
2023-02-28T04:16:59.131Z,162.43972
2023-02-28T04:22:00.675Z,160.14035
2023-02-28T04:27:02.223Z,158.63415
2023-02-28T04:32:03.970Z,161.66784
2023-02-28T04:37:13.338Z,161.66784
2023-02-28T04:42:15.312Z,164
2023-02-28T04:47:16.773Z,167.18841
2023-02-28T04:52:18.418Z,167.18841
2023-02-28T04:57:19.998Z,172.99628
2023-02-28T05:02:21.689Z,168.81752
2023-02-28T05:07:23.296Z,169.64103
2023-02-28T05:12:24.993Z,170.47059
2023-02-28T05:17:26.438Z,174.71161
2023-02-28T05:22:27.912Z,170.47059
2023-02-28T05:27:29.513Z,170.47059
2023-02-28T05:32:31.144Z,169.64103
2023-02-28T05:37:32.799Z,164.78853
2023-02-28T05:42:34.493Z,168
2023-02-28T05:47:36.053Z,168
2023-02-28T05:52:37.585Z,167.18841
2023-02-28T05:57:39.154Z,170.47059
2023-02-28T06:02:40.832Z,164
2023-02-28T06:07:42.535Z,163.21708
2023-02-28T06:12:44.115Z,168
2023-02-28T06:17:45.556Z,160.14035
2023-02-28T06:22:47.049Z,164.78853
2023-02-28T06:27:48.529Z,162.43972
2023-02-28T06:32:50.006Z,152.10811
2023-02-28T06:37:51.477Z,163.21708
2023-02-28T06:42:52.951Z,168.81752
2023-02-28T06:47:54.485Z,168
2023-02-28T06:52:56.215Z,166.38267
2023-02-28T06:57:57.792Z,170.47059
2023-02-28T07:02:59.364Z,175.57895
2023-02-28T07:08:00.838Z,170.47059
2023-02-28T07:13:02.288Z,172.99628
2023-02-28T07:18:03.797Z,171.30627
2023-02-28T07:23:05.225Z,164
2023-02-28T07:28:06.959Z,168.81752
2023-02-28T07:33:08.721Z,167.18841
2023-02-28T07:38:10.318Z,170.47059
2023-02-28T07:43:12.090Z,168.81752
2023-02-28T07:48:13.528Z,168.81752
2023-02-28T07:53:15.012Z,174.71161
2023-02-28T07:58:16.764Z,175.57895
2023-02-28T08:03:18.271Z,177.33333
2023-02-28T08:08:19.801Z,180.92308
2023-02-28T08:13:21.269Z,177.33333
2023-02-28T08:18:22.778Z,178.22053
2023-02-28T08:23:24.213Z,193.39271
2023-02-28T08:28:27.367Z,192.3871
2023-02-28T08:33:29.248Z,191.38956
2023-02-28T08:38:30.781Z,164.78853
2023-02-28T08:43:32.338Z,185.56863
2023-02-28T08:48:33.823Z,173.85075
2023-02-28T08:53:35.323Z,173.85075
2023-02-28T08:58:36.942Z,168.81752
2023-02-28T09:03:38.639Z,168
2023-02-28T09:08:40.201Z,165.58273
2023-02-28T09:13:41.905Z,157.14879
2023-02-28T09:18:43.430Z,156.41379
2023-02-28T09:23:44.916Z,154.23891
2023-02-28T09:28:46.473Z,154.23891
2023-02-28T09:33:47.981Z,160.14035
2023-02-28T09:38:49.808Z,156.41379
2023-02-28T09:43:51.464Z,167.18841
2023-02-28T09:48:53.086Z,175.57895
2023-02-28T09:54:01.436Z,161.66784
2023-02-28T09:59:03.559Z,165.58273
2023-02-28T10:04:05.070Z,176.45283
2023-02-28T10:09:06.645Z,186.51969
2023-02-28T10:14:08.761Z,181.83784
2023-02-28T10:19:10.210Z,184.625
2023-02-28T10:29:14.215Z,207.24786
2023-02-28T10:34:15.670Z,241.58454
2023-02-28T10:39:17.159Z,269.92593
2023-02-28T10:44:18.650Z,276.97297
2023-02-28T10:49:20.245Z,298.02299
2023-02-28T10:54:21.705Z,336.35669
2023-02-28T10:59:23.328Z,349.26316
2023-02-28T11:04:24.825Z,410.66667
2023-02-28T11:09:26.296Z,417.84615
2023-02-28T11:14:27.813Z,432.88889
2023-02-28T11:19:29.256Z,436.8
2023-02-28T11:24:30.764Z,457.33333
2023-02-28T11:29:32.251Z,417.84615
2023-02-28T11:34:33.782Z,429.03937
2023-02-28T11:39:35.393Z,475.03448
2023-02-28T11:44:37.085Z,403.70149
2023-02-28T11:49:38.675Z,368.82759
2023-02-28T11:54:40.240Z,432.88889
2023-02-28T11:59:41.810Z,470.49573
2023-02-28T12:04:43.300Z,530.66667
2023-02-28T12:09:44.741Z,498.95495
2023-02-28T12:14:46.250Z,489.13274
2023-02-28T12:19:47.721Z,421.51938
2023-02-28T12:24:49.290Z,466.0339
2023-02-28T12:29:50.861Z,444.81301
2023-02-28T12:34:52.450Z,475.03448
2023-02-28T12:39:54.026Z,444.81301
2023-02-28T12:44:55.528Z,509.13761
2023-02-28T12:49:57.284Z,444.81301
2023-02-28T12:54:58.788Z,484.35088
2023-02-28T13:00:00.283Z,498.95495
2023-02-28T13:05:01.944Z,453.09091
2023-02-28T13:10:03.563Z,479.65217
2023-02-28T13:15:05.052Z,440.77419
2023-02-28T13:20:06.657Z,514.37037
2023-02-28T13:25:08.173Z,572.57143
2023-02-28T13:30:09.946Z,553.90099
2023-02-28T13:35:11.722Z,572.57143
2023-02-28T13:40:13.240Z,585.66667
2023-02-28T13:45:14.722Z,592.42105
2023-02-28T13:50:17.736Z,475.03448
2023-02-28T13:55:19.354Z,572.57143
2023-02-28T14:00:20.947Z,660.27907
2023-02-28T14:05:22.436Z,585.66667
2023-02-28T14:10:24.217Z,620.92308
2023-02-28T14:15:25.881Z,525.13208
2023-02-28T14:20:27.381Z,620.92308
2023-02-28T14:25:28.860Z,566.22222
2023-02-28T14:30:30.529Z,613.56522
2023-02-28T14:35:32.371Z,585.66667
2023-02-28T14:40:33.862Z,579.05155
2023-02-28T14:45:35.320Z,475.03448
2023-02-28T14:50:36.773Z,470.49573
2023-02-28T14:55:38.506Z,498.95495
2023-02-28T15:00:40.164Z,498.95495
2023-02-28T15:05:41.867Z,519.70093
2023-02-28T15:10:43.510Z,498.95495
2023-02-28T15:15:58.704Z,448.91803
2023-02-28T15:21:03.136Z,475.03448
2023-02-28T15:26:04.641Z,509.13761
2023-02-28T15:31:06.408Z,453.09091
2023-02-28T15:36:08.323Z,553.90099
2023-02-28T15:41:09.920Z,599.31915
2023-02-28T15:46:11.386Z,448.91803
2023-02-28T15:51:13.413Z,466.0339
2023-02-28T15:56:14.910Z,542.05825
2023-02-28T16:01:16.397Z,489.13274
2023-02-28T16:06:17.894Z,466.0339
2023-02-28T16:11:19.395Z,407.15789
2023-02-28T16:16:21.206Z,440.77419
2023-02-28T16:21:22.894Z,425.25
2023-02-28T16:26:24.380Z,414.22901
2023-02-28T16:31:26.332Z,393.63504
2023-02-28T16:36:27.841Z,421.51938
2023-02-28T16:41:29.621Z,384
2023-02-28T16:46:31.551Z,349.26316
2023-02-28T16:51:35.631Z,341.41935
2023-02-28T16:56:37.494Z,329
2023-02-28T17:01:39.299Z,331.42138
2023-02-28T17:06:40.851Z,324.24691
2023-02-28T17:11:42.352Z,312.86228
2023-02-28T17:16:43.957Z,294
2023-02-28T17:21:45.495Z,276.97297
2023-02-28T17:26:47.065Z,282.46154
2023-02-28T17:31:48.739Z,368.82759
2023-02-28T17:36:50.254Z,377.80282
2023-02-28T17:41:51.755Z,374.76923
2023-02-28T17:46:53.457Z,390.37681
2023-02-28T17:51:55.121Z,374.76923
2023-02-28T17:56:56.582Z,380.87943
2023-02-28T18:01:58.260Z,380.87943
2023-02-28T18:06:59.786Z,374.76923
2023-02-28T18:12:01.232Z,354.66667
2023-02-28T18:17:02.857Z,333.87342
2023-02-28T18:22:04.326Z,326.6087
2023-02-28T18:27:05.801Z,338.87179
2023-02-28T18:32:07.369Z,333.87342
2023-02-28T18:37:08.859Z,357.42282
2023-02-28T18:42:10.496Z,341.41935
2023-02-28T18:47:12.062Z,333.87342
2023-02-28T18:52:13.598Z,341.41935
2023-02-28T18:57:15.075Z,331.42138
2023-02-28T19:02:16.682Z,333.87342
2023-02-28T19:07:18.124Z,329
2023-02-28T19:12:19.554Z,336.35669
2023-02-28T19:17:21.059Z,324.24691
2023-02-28T19:22:22.665Z,326.6087
2023-02-28T19:27:24.102Z,321.91411
2023-02-28T19:32:25.787Z,315.08434
2023-02-28T19:37:27.403Z,308.49704
2023-02-28T19:42:29.102Z,300.06936
2023-02-28T19:47:30.692Z,296
2023-02-28T19:52:32.190Z,290.06742
2023-02-28T19:57:33.806Z,296
2023-02-28T20:02:35.336Z,288.13408
2023-02-28T20:07:36.908Z,288.13408
2023-02-28T20:12:38.444Z,302.13953
2023-02-28T20:17:40.131Z,298.02299
2023-02-28T20:22:41.758Z,294
2023-02-28T20:27:43.377Z,298.02299
2023-02-28T20:32:44.980Z,306.35294
2023-02-28T20:37:46.477Z,300.06936
2023-02-28T20:42:48.077Z,296
2023-02-28T20:47:49.577Z,282.46154
2023-02-28T20:52:51.062Z,269.92593
2023-02-28T20:57:52.567Z,271.65957
2023-02-28T21:02:54.106Z,266.51309
2023-02-28T21:07:55.640Z,261.52577
2023-02-28T21:12:57.105Z,256.69036
2023-02-28T21:17:58.666Z,264.83333
2023-02-28T21:23:00.252Z,263.17098
2023-02-28T21:28:01.774Z,253.54774
2023-02-28T21:33:03.294Z,261.52577
2023-02-28T21:38:04.907Z,255.11111
2023-02-28T21:43:06.434Z,258.28571
2023-02-28T21:48:07.943Z,252
2023-02-28T21:53:09.365Z,244.4878
2023-02-28T21:58:10.856Z,252
2023-02-28T22:03:12.364Z,258.28571
2023-02-28T22:08:14.015Z,250.46766
2023-02-28T22:13:15.541Z,258.28571
2023-02-28T22:18:17.061Z,259.89744
2023-02-28T22:23:19.171Z,266.51309
2023-02-28T22:28:20.829Z,253.54774
2023-02-28T22:33:22.583Z,263.17098
2023-02-28T22:38:24.079Z,278.78261
2023-02-28T22:43:25.663Z,284.33149
2023-02-28T22:48:27.237Z,280.61202
2023-02-28T22:53:28.792Z,276.97297
2023-02-28T22:58:30.305Z,275.1828
2023-02-28T23:03:31.931Z,264.83333
2023-02-28T23:08:33.408Z,269.92593
2023-02-28T23:13:34.905Z,269.92593
2023-02-28T23:18:36.581Z,258.28571
2023-02-28T23:23:38.164Z,259.89744
2023-02-28T23:28:39.608Z,256.69036
2023-02-28T23:33:41.218Z,261.52577
2023-02-28T23:38:42.778Z,255.11111
2023-02-28T23:43:44.272Z,250.46766
2023-02-28T23:48:45.801Z,248.9505
2023-02-28T23:53:47.327Z,244.4878
2023-02-28T23:58:48.819Z,256.69036
